createdAt,value
2017-07-26T00:00:46.305Z,2.40
2017-07-26T00:03:12.377Z,2.50
2017-07-26T00:05:38.376Z,2.40
2017-07-26T00:08:04.416Z,2.90
2017-07-26T00:10:30.432Z,3.20
2017-07-26T00:12:56.472Z,2.60
2017-07-26T00:15:22.482Z,3.00
2017-07-26T00:17:49.449Z,2.83
2017-07-26T00:20:16.188Z,3.23
2017-07-26T00:22:42.171Z,3.30
2017-07-26T00:25:09.308Z,2.40
2017-07-26T00:27:35.326Z,2.90
2017-07-26T00:30:02.446Z,3.10
2017-07-26T00:32:29.217Z,3.07
2017-07-26T00:34:55.501Z,3.30
2017-07-26T00:37:21.515Z,3.03
2017-07-26T00:39:47.543Z,3.00
2017-07-26T00:42:13.662Z,3.23
2017-07-26T00:44:39.675Z,3.60
2017-07-26T00:47:05.664Z,3.67
2017-07-26T00:49:31.645Z,3.40
2017-07-26T00:51:58.379Z,3.50
2017-07-26T00:54:24.393Z,3.90
2017-07-26T00:56:50.359Z,3.80
2017-07-26T00:59:16.388Z,3.97
2017-07-26T01:01:42.349Z,3.97
2017-07-26T01:04:09.399Z,3.77
2017-07-26T01:06:35.473Z,4.50
2017-07-26T01:09:01.472Z,4.53
2017-07-26T01:11:27.745Z,4.23
2017-07-26T01:13:54.103Z,4.63
2017-07-26T01:16:20.218Z,5.73
2017-07-26T01:18:47.475Z,4.93
2017-07-26T01:21:13.575Z,4.77
2017-07-26T01:23:39.793Z,5.03
2017-07-26T01:26:05.737Z,5.90
2017-07-26T01:28:31.691Z,5.10
2017-07-26T01:30:57.740Z,5.63
2017-07-26T01:33:24.946Z,5.37
2017-07-26T01:35:50.913Z,5.40
2017-07-26T01:38:17.784Z,6.20
2017-07-26T01:40:44.847Z,5.17
2017-07-26T01:43:10.828Z,5.73
2017-07-26T01:45:36.850Z,5.90
2017-07-26T01:48:02.874Z,6.37
2017-07-26T01:50:28.902Z,5.27
2017-07-26T01:52:54.911Z,5.60
2017-07-26T01:55:20.934Z,6.23
2017-07-26T01:57:46.931Z,6.47
2017-07-26T02:00:12.986Z,5.80
2017-07-26T02:02:39.005Z,5.20
2017-07-26T02:05:05.052Z,5.90
2017-07-26T02:07:31.135Z,7.50
2017-07-26T02:09:57.096Z,5.80
2017-07-26T02:12:24.033Z,5.87
2017-07-26T02:14:50.012Z,6.30
2017-07-26T02:17:16.255Z,5.80
2017-07-26T02:19:42.236Z,6.00
2017-07-26T02:22:09.307Z,5.90
2017-07-26T02:24:35.372Z,7.40
2017-07-26T02:27:02.409Z,6.73
2017-07-26T02:29:28.396Z,7.17
2017-07-26T02:31:54.357Z,6.30
2017-07-26T02:34:20.335Z,5.53
2017-07-26T02:36:46.344Z,6.37
2017-07-26T02:39:12.300Z,7.07
2017-07-26T02:41:38.377Z,7.00
2017-07-26T02:44:07.000Z,6.90
2017-07-26T02:46:33.011Z,6.77
2017-07-26T02:48:59.072Z,7.90
2017-07-26T02:51:25.282Z,6.90
2017-07-26T02:53:52.129Z,8.53
2017-07-26T02:56:18.146Z,7.10
2017-07-26T02:58:44.466Z,7.40
2017-07-26T03:01:10.493Z,6.70
2017-07-26T03:03:36.503Z,8.33
2017-07-26T03:06:02.449Z,7.33
2017-07-26T03:08:28.681Z,8.10
2017-07-26T03:10:56.737Z,7.63
2017-07-26T03:13:22.784Z,8.53
2017-07-26T03:15:48.876Z,8.50
2017-07-26T03:18:15.606Z,9.23
2017-07-26T03:20:41.644Z,8.03
2017-07-26T03:23:07.946Z,7.90
2017-07-26T03:25:33.999Z,8.00
2017-07-26T03:28:00.018Z,9.00
2017-07-26T03:30:26.069Z,7.90
2017-07-26T03:32:53.076Z,8.30
2017-07-26T03:35:20.027Z,8.77
2017-07-26T03:37:46.280Z,8.97
2017-07-26T03:40:13.382Z,9.90
2017-07-26T03:42:39.407Z,8.70
2017-07-26T03:45:05.559Z,9.80
2017-07-26T03:47:31.806Z,8.73
2017-07-26T03:49:57.825Z,9.63
2017-07-26T03:52:23.804Z,9.40
2017-07-26T03:54:49.770Z,8.70
2017-07-26T03:57:15.845Z,11.10
2017-07-26T03:59:41.825Z,9.37
2017-07-26T04:02:08.426Z,9.70
2017-07-26T04:04:34.479Z,12.27
2017-07-26T04:07:00.575Z,10.30
2017-07-26T04:09:26.598Z,11.33
2017-07-26T04:11:52.594Z,12.50
2017-07-26T04:14:18.637Z,11.83
2017-07-26T04:16:44.621Z,11.97
2017-07-26T04:19:12.440Z,10.70
2017-07-26T04:21:38.431Z,11.30
2017-07-26T04:24:04.455Z,11.97
2017-07-26T04:26:30.553Z,12.70
2017-07-26T04:28:56.534Z,12.73
2017-07-26T04:31:22.551Z,11.50
2017-07-26T04:33:48.548Z,12.60
2017-07-26T04:36:15.503Z,13.20
2017-07-26T04:38:41.813Z,15.07
2017-07-26T04:41:07.772Z,13.50
2017-07-26T04:43:35.175Z,13.20
2017-07-26T04:46:01.214Z,15.13
2017-07-26T04:48:27.967Z,13.90
2017-07-26T04:50:54.167Z,13.40
2017-07-26T04:53:20.143Z,13.97
2017-07-26T04:55:46.124Z,13.80
2017-07-26T04:58:12.108Z,13.73
2017-07-26T05:00:38.089Z,14.77
2017-07-26T05:03:04.080Z,14.70
2017-07-26T05:05:30.071Z,14.60
2017-07-26T05:07:56.872Z,18.43
2017-07-26T05:10:22.963Z,15.13
2017-07-26T05:12:48.991Z,15.03
2017-07-26T05:15:15.022Z,15.90
2017-07-26T05:17:41.841Z,14.40
2017-07-26T05:20:08.748Z,16.30
2017-07-26T05:22:35.651Z,14.63
2017-07-26T05:25:01.675Z,15.93
2017-07-26T05:27:27.704Z,14.33
2017-07-26T05:29:54.751Z,15.87
2017-07-26T05:32:20.772Z,15.67
2017-07-26T05:34:47.516Z,16.47
2017-07-26T05:37:13.576Z,16.70
2017-07-26T05:39:39.755Z,16.97
2017-07-26T05:42:06.505Z,17.47
2017-07-26T05:44:32.562Z,17.13
2017-07-26T05:46:58.623Z,17.60
2017-07-26T05:49:24.749Z,17.13
2017-07-26T05:51:51.651Z,17.13
2017-07-26T05:54:20.346Z,20.10
2017-07-26T05:56:46.427Z,17.63
2017-07-26T05:59:12.478Z,18.10
2017-07-26T06:01:38.511Z,19.57
2017-07-26T06:04:04.541Z,18.80
2017-07-26T06:06:30.553Z,18.93
2017-07-26T06:08:56.543Z,20.10
2017-07-26T06:11:22.557Z,19.47
2017-07-26T06:13:48.791Z,19.33
2017-07-26T06:16:14.843Z,17.83
2017-07-26T06:18:40.946Z,17.70
2017-07-26T06:21:07.500Z,20.70
2017-07-26T06:23:34.499Z,18.83
2017-07-26T06:26:01.231Z,18.40
2017-07-26T06:28:27.491Z,17.20
2017-07-26T06:30:53.512Z,19.60
2017-07-26T06:33:19.622Z,17.17
2017-07-26T06:35:45.635Z,19.77
2017-07-26T06:38:12.165Z,18.87
2017-07-26T06:40:38.763Z,17.10
2017-07-26T06:43:05.188Z,17.87
2017-07-26T06:45:31.784Z,16.30
2017-07-26T06:47:57.883Z,17.67
2017-07-26T06:50:23.998Z,17.53
2017-07-26T06:52:50.039Z,19.60
2017-07-26T06:55:16.055Z,19.40
2017-07-26T06:57:45.357Z,17.50
2017-07-26T07:00:11.392Z,17.37
2017-07-26T07:02:37.664Z,19.53
2017-07-26T07:05:03.773Z,17.50
2017-07-26T07:07:29.764Z,18.07
2017-07-26T07:09:56.600Z,16.70
2017-07-26T07:12:22.717Z,17.53
2017-07-26T07:14:48.749Z,17.03
2017-07-26T07:17:16.618Z,17.07
2017-07-26T07:19:42.640Z,17.30
2017-07-26T07:22:08.891Z,16.80
2017-07-26T07:24:34.888Z,16.40
2017-07-26T07:27:02.368Z,19.03
2017-07-26T07:29:28.392Z,16.67
2017-07-26T07:31:54.392Z,14.53
2017-07-26T07:34:20.390Z,16.07
2017-07-26T07:36:46.391Z,16.30
2017-07-26T07:39:12.560Z,17.17
2017-07-26T07:41:39.308Z,17.00
2017-07-26T07:44:05.546Z,16.87
2017-07-26T07:46:31.561Z,14.50
2017-07-26T07:48:57.584Z,16.77
2017-07-26T07:51:23.626Z,15.23
2017-07-26T07:53:49.758Z,15.70
2017-07-26T07:56:16.007Z,16.03
2017-07-26T07:58:42.101Z,16.03
2017-07-26T08:01:08.765Z,20.33
2017-07-26T08:03:34.849Z,14.27
2017-07-26T08:06:00.863Z,13.80
2017-07-26T08:08:27.195Z,13.30
2017-07-26T08:10:53.450Z,12.90
2017-07-26T08:13:20.384Z,9.80
2017-07-26T08:15:46.491Z,8.70
2017-07-26T08:18:12.636Z,8.13
2017-07-26T08:20:38.763Z,7.90
2017-07-26T08:23:05.907Z,9.03
2017-07-26T08:25:32.886Z,7.77
2017-07-26T08:27:58.914Z,7.00
2017-07-26T08:30:24.903Z,7.57
2017-07-26T08:32:52.698Z,6.80
2017-07-26T08:35:18.821Z,7.47
2017-07-26T08:37:44.787Z,6.70
2017-07-26T08:40:10.811Z,7.63
2017-07-26T08:42:38.491Z,8.80
2017-07-26T08:45:04.539Z,7.43
2017-07-26T08:47:30.766Z,7.87
2017-07-26T08:49:57.793Z,8.50
2017-07-26T08:52:23.910Z,8.23
2017-07-26T08:54:50.591Z,9.63
2017-07-26T08:57:16.588Z,9.97
2017-07-26T08:59:42.668Z,9.33
2017-07-26T09:02:09.697Z,11.40
2017-07-26T09:04:35.795Z,10.40
2017-07-26T09:07:02.011Z,12.33
2017-07-26T09:09:28.361Z,11.43
2017-07-26T09:11:54.814Z,12.47
2017-07-26T09:14:21.078Z,15.20
2017-07-26T09:16:47.118Z,14.87
2017-07-26T09:19:13.131Z,16.53
2017-07-26T09:21:39.289Z,15.60
2017-07-26T09:24:05.397Z,15.07
2017-07-26T09:26:31.715Z,14.33
2017-07-26T09:28:58.134Z,15.17
2017-07-26T09:31:24.403Z,14.50
2017-07-26T09:33:50.375Z,14.43
2017-07-26T09:36:16.652Z,16.73
2017-07-26T09:38:42.925Z,15.30
2017-07-26T09:41:20.020Z,14.20
2017-07-26T09:43:46.038Z,13.33
2017-07-26T09:46:12.732Z,16.20
2017-07-26T09:48:39.172Z,18.47
2017-07-26T09:51:06.262Z,13.90
2017-07-26T09:53:35.843Z,15.30
2017-07-26T09:56:02.637Z,15.63
2017-07-26T09:58:28.719Z,16.00
2017-07-26T10:00:56.231Z,17.93
2017-07-26T10:03:25.770Z,16.50
2017-07-26T10:05:52.006Z,17.10
2017-07-26T10:08:18.142Z,17.47
2017-07-26T10:10:44.871Z,19.03
2017-07-26T10:13:11.975Z,17.40
2017-07-26T10:15:37.975Z,17.17
2017-07-26T10:18:05.034Z,17.00
2017-07-26T10:20:31.062Z,18.30
2017-07-26T10:22:57.296Z,17.53
2017-07-26T10:25:23.470Z,18.13
2017-07-26T10:27:49.563Z,17.30
2017-07-26T10:30:16.802Z,16.67
2017-07-26T10:32:42.939Z,16.67
2017-07-26T10:35:09.254Z,16.77
2017-07-26T10:37:36.567Z,17.00
2017-07-26T10:40:04.834Z,16.20
2017-07-26T10:42:31.810Z,15.63
2017-07-26T10:44:58.779Z,20.97
2017-07-26T10:47:24.897Z,16.70
2017-07-26T10:49:51.029Z,17.80
2017-07-26T10:52:17.252Z,16.57
2017-07-26T10:54:44.256Z,15.63
2017-07-26T10:57:11.222Z,15.00
2017-07-26T10:59:37.336Z,13.87
2017-07-26T11:02:03.807Z,14.43
2017-07-26T11:04:30.003Z,16.33
2017-07-26T11:06:57.514Z,13.40
2017-07-26T11:09:23.988Z,14.57
2017-07-26T11:11:50.321Z,13.30
2017-07-26T11:14:18.023Z,14.37
2017-07-26T11:16:44.530Z,14.67
2017-07-26T11:19:10.842Z,15.80
2017-07-26T11:21:37.033Z,14.03
2017-07-26T11:24:03.198Z,12.07
2017-07-26T11:26:29.391Z,12.73
2017-07-26T11:28:58.063Z,13.20
2017-07-26T11:31:24.961Z,12.50
2017-07-26T11:33:51.084Z,12.60
2017-07-26T11:36:18.121Z,12.97
2017-07-26T11:38:44.235Z,12.07
2017-07-26T11:41:11.211Z,12.97
2017-07-26T11:43:37.942Z,10.83
2017-07-26T11:46:04.967Z,12.63
2017-07-26T11:48:31.317Z,11.90
2017-07-26T11:50:58.259Z,10.63
2017-07-26T11:53:24.458Z,10.93
2017-07-26T11:55:51.857Z,10.53
2017-07-26T11:58:18.285Z,13.37
2017-07-26T12:00:47.643Z,12.73
2017-07-26T12:03:13.689Z,13.30
2017-07-26T12:05:40.325Z,13.60
2017-07-26T12:08:08.302Z,13.50
2017-07-26T12:10:36.452Z,12.10
2017-07-26T12:13:02.674Z,12.60
2017-07-26T12:15:28.748Z,13.67
2017-07-26T12:17:56.803Z,12.67
2017-07-26T12:20:22.895Z,12.30
2017-07-26T12:22:49.172Z,11.80
2017-07-26T12:25:15.300Z,12.37
2017-07-26T12:27:41.974Z,14.27
2017-07-26T12:30:08.261Z,12.03
2017-07-26T12:32:34.961Z,12.67
2017-07-26T12:35:02.108Z,11.90
2017-07-26T12:37:28.147Z,13.80
2017-07-26T12:39:54.575Z,11.30
2017-07-26T12:42:20.671Z,11.50
2017-07-26T12:44:48.641Z,11.53
2017-07-26T12:47:14.657Z,11.13
2017-07-26T12:49:41.857Z,11.23
2017-07-26T12:52:07.988Z,12.10
2017-07-26T12:54:34.063Z,14.43
2017-07-26T12:57:00.220Z,10.70
2017-07-26T12:59:26.324Z,12.23
2017-07-26T13:01:52.355Z,11.60
2017-07-26T13:04:18.683Z,10.80
2017-07-26T13:06:44.996Z,10.57
2017-07-26T13:09:11.498Z,10.03
2017-07-26T13:11:37.527Z,10.70
2017-07-26T13:14:03.543Z,9.87
2017-07-26T13:16:30.424Z,9.00
2017-07-26T13:18:56.747Z,11.43
2017-07-26T13:21:23.489Z,9.10
2017-07-26T13:23:50.733Z,10.13
2017-07-26T13:26:18.613Z,10.00
2017-07-26T13:28:44.747Z,9.93
2017-07-26T13:31:10.905Z,12.30
2017-07-26T13:33:36.904Z,9.80
2017-07-26T13:36:02.899Z,9.70
2017-07-26T13:38:28.970Z,10.30
2017-07-26T13:40:55.917Z,9.03
2017-07-26T13:43:22.750Z,9.07
2017-07-26T13:45:48.790Z,9.30
2017-07-26T13:48:15.414Z,10.53
2017-07-26T13:50:42.360Z,9.27
2017-07-26T13:53:09.403Z,8.60
2017-07-26T13:55:35.429Z,9.13
2017-07-26T13:58:02.017Z,9.20
2017-07-26T14:00:28.802Z,10.40
2017-07-26T14:02:54.801Z,9.23
2017-07-26T14:05:20.832Z,7.93
2017-07-26T14:07:46.879Z,8.27
2017-07-26T14:10:13.421Z,8.80
2017-07-26T14:12:39.591Z,8.50
2017-07-26T14:15:06.058Z,9.30
2017-07-26T14:20:02.970Z,7.60
2017-07-26T14:22:29.025Z,7.60
2017-07-26T14:24:55.170Z,8.50
2017-07-26T14:27:22.423Z,8.30
2017-07-26T14:29:48.447Z,8.73
2017-07-26T14:32:14.802Z,8.13
2017-07-26T14:34:40.809Z,9.23
2017-07-26T14:37:07.827Z,8.33
2017-07-26T14:39:33.884Z,8.30
2017-07-26T14:41:59.986Z,8.57
2017-07-26T14:44:26.010Z,8.43
2017-07-26T14:46:52.307Z,7.63
2017-07-26T14:49:20.104Z,7.90
2017-07-26T14:51:46.423Z,9.13
2017-07-26T14:54:13.384Z,8.20
2017-07-26T14:56:39.584Z,7.43
2017-07-26T14:59:06.175Z,8.70
2017-07-26T15:01:32.348Z,9.80
2017-07-26T15:04:14.246Z,9.37
2017-07-26T15:06:40.502Z,9.10
2017-07-26T15:09:06.574Z,9.30
2017-07-26T15:11:32.517Z,9.13
2017-07-26T15:13:58.517Z,9.03
2017-07-26T15:16:24.552Z,8.40
2017-07-26T15:18:51.559Z,10.43
2017-07-26T15:21:18.523Z,8.63
2017-07-26T15:23:44.863Z,8.20
2017-07-26T15:26:11.168Z,8.17
2017-07-26T15:28:37.927Z,8.50
2017-07-26T15:31:03.968Z,8.17
2017-07-26T15:33:30.003Z,8.03
2017-07-26T15:35:57.641Z,8.23
2017-07-26T15:38:23.710Z,8.47
2017-07-26T15:40:50.616Z,8.33
2017-07-26T15:43:17.359Z,8.47
2017-07-26T15:45:43.871Z,7.47
2017-07-26T15:48:09.942Z,12.97
2017-07-26T15:50:35.976Z,7.50
2017-07-26T15:53:02.587Z,8.07
2017-07-26T15:55:29.549Z,8.50
2017-07-26T15:57:55.651Z,8.27
2017-07-26T16:00:23.821Z,9.37
2017-07-26T16:02:50.793Z,7.73
2017-07-26T16:05:17.126Z,8.20
2017-07-26T16:07:43.153Z,8.57
2017-07-26T16:12:42.763Z,6.97
2017-07-26T16:15:08.881Z,6.40
2017-07-26T16:17:35.758Z,10.30
2017-07-26T16:20:02.787Z,6.93
2017-07-26T16:22:28.899Z,8.57
2017-07-26T16:24:55.288Z,7.40
2017-07-26T16:27:22.589Z,7.43
2017-07-26T16:29:48.620Z,7.30
2017-07-26T16:32:15.796Z,6.83
2017-07-26T16:34:42.026Z,8.33
2017-07-26T16:37:11.959Z,6.47
2017-07-26T16:39:39.133Z,6.50
2017-07-26T16:42:11.674Z,6.00
2017-07-26T16:44:38.208Z,8.37
2017-07-26T16:47:05.720Z,6.47
2017-07-26T16:49:35.513Z,6.03
2017-07-26T16:52:05.108Z,6.20
2017-07-26T16:54:33.162Z,7.90
2017-07-26T16:57:00.600Z,7.03
2017-07-26T16:59:29.211Z,6.83
2017-07-26T17:01:58.194Z,6.97
2017-07-26T17:04:29.238Z,7.63
2017-07-26T17:09:28.303Z,7.43
2017-07-26T17:11:57.038Z,7.30
2017-07-26T17:14:24.968Z,9.63
2017-07-26T17:16:53.273Z,8.97
2017-07-26T17:19:19.367Z,7.70
2017-07-26T17:21:49.074Z,8.97
2017-07-26T17:24:15.369Z,8.13
2017-07-26T17:26:45.172Z,8.00
2017-07-26T17:29:12.944Z,8.23
2017-07-26T17:31:40.720Z,7.33
2017-07-26T17:34:10.230Z,7.33
2017-07-26T17:36:36.980Z,8.20
2017-07-26T17:39:05.749Z,7.80
2017-07-26T17:41:34.412Z,7.60
2017-07-26T17:44:03.727Z,8.03
2017-07-26T17:46:32.885Z,7.17
2017-07-26T17:48:59.894Z,7.67
2017-07-26T17:54:01.182Z,9.43
2017-07-26T17:56:28.957Z,7.73
2017-07-26T17:59:00.032Z,8.20
2017-07-26T18:01:28.115Z,7.87
2017-07-26T18:04:00.073Z,7.57
2017-07-26T18:06:31.973Z,8.03
2017-07-26T18:08:59.841Z,7.63
2017-07-26T18:11:27.272Z,8.03
2017-07-26T18:13:56.118Z,7.30
2017-07-26T18:19:03.504Z,9.20
2017-07-26T18:21:31.291Z,8.20
2017-07-26T18:23:58.800Z,8.57
2017-07-26T18:26:26.371Z,9.10
2017-07-26T18:28:55.144Z,9.30
2017-07-26T18:31:25.970Z,8.73
2017-07-26T18:33:59.902Z,8.80
2017-07-26T18:36:26.917Z,8.90
2017-07-26T18:39:06.483Z,7.70
2017-07-26T18:41:48.454Z,8.77
2017-07-26T18:44:23.677Z,11.37
2017-07-26T18:46:57.101Z,7.87
2017-07-26T18:49:32.839Z,9.43
2017-07-26T18:52:04.193Z,8.53
2017-07-26T18:54:31.485Z,8.43
2017-07-26T18:57:01.885Z,8.40
2017-07-26T18:59:33.334Z,14.73
2017-07-26T19:02:06.103Z,8.33
2017-07-26T19:04:33.615Z,8.90
2017-07-26T19:07:09.096Z,9.47
2017-07-26T19:09:39.751Z,9.23
2017-07-26T19:12:12.970Z,8.13
2017-07-26T19:14:43.914Z,9.90
2017-07-26T19:17:15.816Z,9.00
2017-07-26T19:19:45.615Z,8.23
2017-07-26T19:22:13.966Z,8.70
2017-07-26T19:24:44.235Z,8.37
2017-07-26T19:27:16.833Z,8.93
2017-07-26T19:29:47.170Z,12.23
2017-07-26T19:32:17.193Z,9.90
2017-07-26T19:34:53.402Z,15.53
2017-07-26T19:37:25.985Z,12.87
2017-07-26T19:40:03.724Z,11.43
2017-07-26T19:53:46.012Z,12.17
2017-07-26T19:56:26.431Z,11.90
2017-07-26T19:58:55.133Z,14.17
2017-07-26T20:01:25.116Z,10.77
2017-07-26T20:04:09.808Z,11.43
2017-07-26T20:06:43.738Z,11.87
2017-07-26T20:09:25.273Z,14.13
2017-07-26T20:15:08.811Z,13.27
2017-07-26T20:17:37.979Z,11.57
2017-07-26T20:20:06.173Z,10.50
2017-07-26T20:22:55.776Z,15.43
2017-07-26T20:25:32.047Z,10.87
2017-07-26T20:28:20.452Z,12.77
2017-07-26T20:30:55.654Z,15.60
2017-07-26T20:33:40.228Z,14.47
2017-07-26T20:36:25.059Z,12.40
2017-07-26T20:39:18.808Z,13.27
2017-07-26T20:44:38.255Z,14.40
2017-07-26T20:47:18.986Z,10.77
2017-07-26T20:58:10.161Z,11.10
2017-07-26T21:00:37.144Z,11.73
2017-07-26T21:03:03.239Z,11.10
2017-07-26T21:05:30.288Z,11.00
2017-07-26T21:07:56.557Z,9.77
2017-07-26T21:10:22.594Z,10.23
2017-07-26T21:12:48.804Z,11.17
2017-07-26T21:15:14.891Z,10.00
2017-07-26T21:17:41.036Z,11.43
2017-07-26T21:20:07.908Z,10.43
2017-07-26T21:22:33.997Z,10.57
2017-07-26T21:25:00.048Z,11.60
2017-07-26T21:27:27.607Z,10.47
2017-07-26T21:29:53.685Z,9.73
2017-07-26T21:32:19.955Z,8.53
2017-07-26T21:34:46.094Z,9.73
2017-07-26T21:37:12.318Z,10.53
2017-07-26T21:39:39.977Z,10.60
2017-07-26T21:42:06.067Z,8.40
2017-07-26T21:44:33.795Z,8.90
2017-07-26T21:47:00.749Z,7.70
2017-07-26T21:49:27.755Z,8.93
2017-07-26T21:51:53.777Z,8.93
2017-07-26T21:56:51.872Z,8.33
2017-07-26T22:01:50.413Z,11.93
2017-07-26T22:04:18.037Z,8.93
2017-07-26T22:06:44.266Z,8.23
2017-07-26T22:09:11.301Z,9.00
2017-07-26T22:11:38.703Z,9.50
2017-07-26T22:14:04.827Z,8.93
2017-07-26T22:16:32.399Z,9.50
2017-07-26T22:18:59.801Z,9.80
2017-07-26T22:21:28.952Z,9.83
2017-07-26T22:23:55.031Z,8.27
2017-07-26T22:26:21.284Z,8.70
2017-07-26T22:28:48.215Z,7.50
2017-07-26T22:31:14.398Z,9.00
2017-07-26T22:33:41.275Z,10.27
2017-07-26T22:36:07.303Z,8.13
2017-07-26T22:38:34.724Z,11.03
2017-07-26T22:41:01.552Z,9.50
2017-07-26T22:43:27.638Z,10.80
2017-07-26T22:45:53.698Z,7.73
2017-07-26T22:48:19.710Z,8.37
2017-07-26T22:50:45.702Z,8.63
2017-07-26T22:53:11.819Z,8.00
2017-07-26T22:55:38.606Z,8.53
2017-07-26T22:58:04.628Z,7.83
2017-07-26T23:00:30.865Z,7.40
2017-07-26T23:02:56.822Z,8.13
2017-07-26T23:05:22.823Z,7.87
2017-07-26T23:07:48.908Z,7.20
2017-07-26T23:10:14.910Z,7.30
2017-07-26T23:12:40.887Z,8.87
2017-07-26T23:15:06.894Z,7.40
2017-07-26T23:17:32.904Z,8.40
2017-07-26T23:19:58.903Z,8.70
2017-07-26T23:22:24.832Z,8.37
2017-07-26T23:24:50.820Z,8.70
2017-07-26T23:27:17.911Z,8.37
2017-07-26T23:29:44.555Z,7.90
2017-07-26T23:32:10.593Z,7.40
2017-07-26T23:34:37.179Z,8.87
2017-07-26T23:37:03.225Z,10.20
2017-07-26T23:39:29.250Z,9.07
2017-07-26T23:41:55.254Z,9.10
2017-07-26T23:44:22.930Z,9.83
2017-07-26T23:46:48.912Z,8.90
2017-07-26T23:49:14.882Z,9.90
2017-07-26T23:51:41.845Z,9.13
2017-07-26T23:54:09.685Z,9.53
2017-07-26T23:56:35.700Z,8.93
2017-07-26T23:59:02.275Z,9.43
